sensor_id;sensor_type;location;lat;lon;timestamp;P1;durP1;ratioP1;P2;durP2;ratioP2
7587;SDS011;3835;48.850;8.938;2024-01-10T00:00:06;23.45;;;21.10;;
7587;SDS011;3835;48.850;8.938;2024-01-10T00:02:35;25.58;;;21.25;;
7587;SDS011;3835;48.850;8.938;2024-01-10T00:05:02;23.55;;;21.05;;
7587;SDS011;3835;48.850;8.938;2024-01-10T00:07:29;24.60;;;20.00;;
7587;SDS011;3835;48.850;8.938;2024-01-10T00:09:56;25.02;;;22.38;;
7587;SDS011;3835;48.850;8.938;2024-01-10T00:12:25;25.27;;;20.85;;
7587;SDS011;3835;48.850;8.938;2024-01-10T00:14:51;26.63;;;22.67;;
7587;SDS011;3835;48.850;8.938;2024-01-10T00:17:20;26.58;;;20.95;;
7587;SDS011;3835;48.850;8.938;2024-01-10T00:19:47;25.17;;;21.33;;
7587;SDS011;3835;48.850;8.938;2024-01-10T00:22:13;23.67;;;21.15;;
7587;SDS011;3835;48.850;8.938;2024-01-10T00:24:40;24.73;;;21.90;;
7587;SDS011;3835;48.850;8.938;2024-01-10T00:27:07;27.00;;;20.88;;
7587;SDS011;3835;48.850;8.938;2024-01-10T00:29:35;23.98;;;21.50;;
7587;SDS011;3835;48.850;8.938;2024-01-10T00:32:02;25.98;;;21.58;;
7587;SDS011;3835;48.850;8.938;2024-01-10T00:34:30;23.98;;;20.95;;
7587;SDS011;3835;48.850;8.938;2024-01-10T00:36:57;22.33;;;19.17;;
7587;SDS011;3835;48.850;8.938;2024-01-10T00:39:24;23.70;;;21.25;;
7587;SDS011;3835;48.850;8.938;2024-01-10T00:41:51;23.02;;;20.83;;
7587;SDS011;3835;48.850;8.938;2024-01-10T00:44:18;22.90;;;20.25;;
7587;SDS011;3835;48.850;8.938;2024-01-10T00:46:44;24.25;;;21.75;;
7587;SDS011;3835;48.850;8.938;2024-01-10T00:49:12;22.67;;;20.30;;
7587;SDS011;3835;48.850;8.938;2024-01-10T00:51:41;22.00;;;19.65;;
7587;SDS011;3835;48.850;8.938;2024-01-10T00:54:07;21.27;;;19.25;;
7587;SDS011;3835;48.850;8.938;2024-01-10T00:56:34;21.98;;;19.70;;
7587;SDS011;3835;48.850;8.938;2024-01-10T00:59:01;22.33;;;20.00;;
7587;SDS011;3835;48.850;8.938;2024-01-10T01:01:28;19.63;;;17.80;;
7587;SDS011;3835;48.850;8.938;2024-01-10T01:03:55;20.65;;;18.70;;
7587;SDS011;3835;48.850;8.938;2024-01-10T01:06:21;21.83;;;19.73;;
7587;SDS011;3835;48.850;8.938;2024-01-10T01:08:50;22.65;;;19.60;;
7587;SDS011;3835;48.850;8.938;2024-01-10T01:11:16;23.50;;;19.17;;
7587;SDS011;3835;48.850;8.938;2024-01-10T01:13:43;21.00;;;19.20;;
7587;SDS011;3835;48.850;8.938;2024-01-10T01:16:10;24.65;;;21.58;;
7587;SDS011;3835;48.850;8.938;2024-01-10T01:18:37;25.35;;;23.17;;
7587;SDS011;3835;48.850;8.938;2024-01-10T01:21:04;25.70;;;23.33;;
7587;SDS011;3835;48.850;8.938;2024-01-10T01:23:31;23.60;;;21.35;;
7587;SDS011;3835;48.850;8.938;2024-01-10T01:25:59;23.55;;;21.02;;
7587;SDS011;3835;48.850;8.938;2024-01-10T01:28:26;20.75;;;18.92;;
7587;SDS011;3835;48.850;8.938;2024-01-10T01:30:53;21.08;;;18.88;;
7587;SDS011;3835;48.850;8.938;2024-01-10T01:33:19;20.75;;;18.65;;
7587;SDS011;3835;48.850;8.938;2024-01-10T01:35:46;21.05;;;18.70;;
7587;SDS011;3835;48.850;8.938;2024-01-10T01:38:13;20.50;;;18.27;;
7587;SDS011;3835;48.850;8.938;2024-01-10T01:40:40;20.23;;;18.13;;
7587;SDS011;3835;48.850;8.938;2024-01-10T01:43:19;20.88;;;18.65;;
7587;SDS011;3835;48.850;8.938;2024-01-10T01:45:47;21.08;;;19.00;;
7587;SDS011;3835;48.850;8.938;2024-01-10T01:48:16;19.67;;;17.65;;
7587;SDS011;3835;48.850;8.938;2024-01-10T01:50:43;22.25;;;17.58;;
7587;SDS011;3835;48.850;8.938;2024-01-10T01:53:11;20.23;;;18.15;;
7587;SDS011;3835;48.850;8.938;2024-01-10T01:55:39;20.80;;;18.38;;
7587;SDS011;3835;48.850;8.938;2024-01-10T01:58:06;20.33;;;18.48;;
7587;SDS011;3835;48.850;8.938;2024-01-10T02:00:34;19.40;;;17.58;;
7587;SDS011;3835;48.850;8.938;2024-01-10T02:03:03;19.85;;;18.05;;
7587;SDS011;3835;48.850;8.938;2024-01-10T02:05:31;20.67;;;18.40;;
7587;SDS011;3835;48.850;8.938;2024-01-10T02:07:58;19.58;;;17.88;;
7587;SDS011;3835;48.850;8.938;2024-01-10T02:10:25;19.83;;;17.88;;
7587;SDS011;3835;48.850;8.938;2024-01-10T02:12:52;20.17;;;18.13;;
7587;SDS011;3835;48.850;8.938;2024-01-10T02:15:19;21.13;;;19.00;;
7587;SDS011;3835;48.850;8.938;2024-01-10T02:17:47;20.55;;;18.15;;
7587;SDS011;3835;48.850;8.938;2024-01-10T02:20:15;20.60;;;18.65;;
7587;SDS011;3835;48.850;8.938;2024-01-10T02:22:42;20.77;;;18.67;;
7587;SDS011;3835;48.850;8.938;2024-01-10T02:25:11;20.33;;;18.20;;
7587;SDS011;3835;48.850;8.938;2024-01-10T02:27:38;19.98;;;18.17;;
7587;SDS011;3835;48.850;8.938;2024-01-10T02:30:06;20.35;;;17.88;;
7587;SDS011;3835;48.850;8.938;2024-01-10T02:32:33;21.08;;;18.75;;
7587;SDS011;3835;48.850;8.938;2024-01-10T02:35:01;21.77;;;19.50;;
7587;SDS011;3835;48.850;8.938;2024-01-10T02:37:28;22.48;;;19.65;;
7587;SDS011;3835;48.850;8.938;2024-01-10T02:39:55;22.70;;;19.73;;
7587;SDS011;3835;48.850;8.938;2024-01-10T02:42:23;21.88;;;19.60;;
7587;SDS011;3835;48.850;8.938;2024-01-10T02:44:50;21.88;;;19.60;;
7587;SDS011;3835;48.850;8.938;2024-01-10T02:47:17;22.67;;;20.45;;
7587;SDS011;3835;48.850;8.938;2024-01-10T02:49:43;21.75;;;19.60;;
7587;SDS011;3835;48.850;8.938;2024-01-10T02:52:10;22.13;;;19.95;;
7587;SDS011;3835;48.850;8.938;2024-01-10T02:54:37;21.90;;;20.05;;
7587;SDS011;3835;48.850;8.938;2024-01-10T02:57:04;21.33;;;19.08;;
7587;SDS011;3835;48.850;8.938;2024-01-10T02:59:32;20.92;;;18.75;;
7587;SDS011;3835;48.850;8.938;2024-01-10T03:01:59;20.55;;;18.42;;
7587;SDS011;3835;48.850;8.938;2024-01-10T03:04:26;21.48;;;19.33;;
7587;SDS011;3835;48.850;8.938;2024-01-10T03:06:53;22.63;;;17.98;;
7587;SDS011;3835;48.850;8.938;2024-01-10T03:09:20;23.48;;;19.60;;
7587;SDS011;3835;48.850;8.938;2024-01-10T03:11:46;19.73;;;17.70;;
7587;SDS011;3835;48.850;8.938;2024-01-10T03:14:13;21.17;;;19.05;;
7587;SDS011;3835;48.850;8.938;2024-01-10T03:16:42;20.05;;;18.15;;
7587;SDS011;3835;48.850;8.938;2024-01-10T03:19:08;20.45;;;18.33;;
7587;SDS011;3835;48.850;8.938;2024-01-10T03:21:35;20.90;;;18.88;;
7587;SDS011;3835;48.850;8.938;2024-01-10T03:24:02;19.50;;;17.58;;
7587;SDS011;3835;48.850;8.938;2024-01-10T03:26:30;19.90;;;17.95;;
7587;SDS011;3835;48.850;8.938;2024-01-10T03:28:56;20.67;;;17.80;;
7587;SDS011;3835;48.850;8.938;2024-01-10T03:31:23;23.45;;;18.85;;
7587;SDS011;3835;48.850;8.938;2024-01-10T03:33:51;19.30;;;17.52;;
7587;SDS011;3835;48.850;8.938;2024-01-10T03:36:18;22.45;;;18.00;;
7587;SDS011;3835;48.850;8.938;2024-01-10T03:38:45;21.00;;;18.83;;
7587;SDS011;3835;48.850;8.938;2024-01-10T03:41:12;20.48;;;18.52;;
7587;SDS011;3835;48.850;8.938;2024-01-10T03:43:40;24.67;;;19.13;;
7587;SDS011;3835;48.850;8.938;2024-01-10T03:46:06;20.52;;;18.30;;
7587;SDS011;3835;48.850;8.938;2024-01-10T03:48:33;20.40;;;18.15;;
7587;SDS011;3835;48.850;8.938;2024-01-10T03:51:02;21.40;;;18.92;;
7587;SDS011;3835;48.850;8.938;2024-01-10T03:53:29;20.90;;;18.67;;
7587;SDS011;3835;48.850;8.938;2024-01-10T03:55:56;19.58;;;17.20;;
7587;SDS011;3835;48.850;8.938;2024-01-10T03:58:23;20.15;;;17.95;;
7587;SDS011;3835;48.850;8.938;2024-01-10T04:00:50;22.38;;;18.77;;
7587;SDS011;3835;48.850;8.938;2024-01-10T04:03:17;21.17;;;18.95;;
7587;SDS011;3835;48.850;8.938;2024-01-10T04:05:43;18.98;;;17.10;;
7587;SDS011;3835;48.850;8.938;2024-01-10T04:08:12;19.77;;;17.20;;
7587;SDS011;3835;48.850;8.938;2024-01-10T04:10:39;20.00;;;17.83;;
7587;SDS011;3835;48.850;8.938;2024-01-10T04:13:05;24.77;;;19.63;;
7587;SDS011;3835;48.850;8.938;2024-01-10T04:15:32;20.92;;;17.42;;
7587;SDS011;3835;48.850;8.938;2024-01-10T04:17:59;20.58;;;18.63;;
7587;SDS011;3835;48.850;8.938;2024-01-10T04:20:26;18.98;;;17.13;;
7587;SDS011;3835;48.850;8.938;2024-01-10T04:22:53;20.75;;;18.48;;
7587;SDS011;3835;48.850;8.938;2024-01-10T04:25:21;20.73;;;18.70;;
7587;SDS011;3835;48.850;8.938;2024-01-10T04:27:48;20.40;;;18.40;;
7587;SDS011;3835;48.850;8.938;2024-01-10T04:30:16;21.52;;;19.27;;
7587;SDS011;3835;48.850;8.938;2024-01-10T04:32:43;20.63;;;18.73;;
7587;SDS011;3835;48.850;8.938;2024-01-10T04:35:10;21.13;;;19.02;;
7587;SDS011;3835;48.850;8.938;2024-01-10T04:37:36;20.80;;;18.83;;
7587;SDS011;3835;48.850;8.938;2024-01-10T04:40:04;21.70;;;19.50;;
7587;SDS011;3835;48.850;8.938;2024-01-10T04:42:33;20.02;;;18.05;;
7587;SDS011;3835;48.850;8.938;2024-01-10T04:45:00;19.88;;;17.80;;
7587;SDS011;3835;48.850;8.938;2024-01-10T04:47:27;20.38;;;18.27;;
7587;SDS011;3835;48.850;8.938;2024-01-10T04:49:54;21.92;;;19.60;;
7587;SDS011;3835;48.850;8.938;2024-01-10T04:52:20;25.60;;;19.45;;
7587;SDS011;3835;48.850;8.938;2024-01-10T04:54:47;24.67;;;21.55;;
7587;SDS011;3835;48.850;8.938;2024-01-10T04:57:14;23.92;;;21.35;;
7587;SDS011;3835;48.850;8.938;2024-01-10T04:59:43;22.33;;;19.80;;
7587;SDS011;3835;48.850;8.938;2024-01-10T05:02:10;22.90;;;20.88;;
7587;SDS011;3835;48.850;8.938;2024-01-10T05:04:37;22.88;;;20.77;;
7587;SDS011;3835;48.850;8.938;2024-01-10T05:07:04;22.88;;;20.58;;
7587;SDS011;3835;48.850;8.938;2024-01-10T05:09:30;22.27;;;19.77;;
7587;SDS011;3835;48.850;8.938;2024-01-10T05:11:57;22.10;;;20.00;;
7587;SDS011;3835;48.850;8.938;2024-01-10T05:14:24;23.17;;;20.90;;
7587;SDS011;3835;48.850;8.938;2024-01-10T05:16:52;22.33;;;20.13;;
7587;SDS011;3835;48.850;8.938;2024-01-10T05:19:19;24.48;;;21.85;;
7587;SDS011;3835;48.850;8.938;2024-01-10T05:21:46;22.75;;;20.40;;
7587;SDS011;3835;48.850;8.938;2024-01-10T05:24:13;22.73;;;20.40;;
7587;SDS011;3835;48.850;8.938;2024-01-10T05:26:40;21.25;;;19.20;;
7587;SDS011;3835;48.850;8.938;2024-01-10T05:29:07;22.70;;;19.92;;
7587;SDS011;3835;48.850;8.938;2024-01-10T05:31:34;22.02;;;19.90;;
7587;SDS011;3835;48.850;8.938;2024-01-10T05:34:02;22.63;;;18.80;;
7587;SDS011;3835;48.850;8.938;2024-01-10T05:36:30;21.05;;;18.88;;
7587;SDS011;3835;48.850;8.938;2024-01-10T05:38:58;20.42;;;18.25;;
7587;SDS011;3835;48.850;8.938;2024-01-10T05:41:25;21.58;;;19.73;;
7587;SDS011;3835;48.850;8.938;2024-01-10T05:43:52;22.88;;;20.55;;
7587;SDS011;3835;48.850;8.938;2024-01-10T05:46:19;22.83;;;20.02;;
7587;SDS011;3835;48.850;8.938;2024-01-10T05:48:46;22.90;;;20.52;;
7587;SDS011;3835;48.850;8.938;2024-01-10T05:51:14;23.60;;;20.83;;
7587;SDS011;3835;48.850;8.938;2024-01-10T05:53:42;21.77;;;19.48;;
7587;SDS011;3835;48.850;8.938;2024-01-10T05:56:09;23.55;;;21.02;;
7587;SDS011;3835;48.850;8.938;2024-01-10T05:58:35;23.88;;;21.30;;
7587;SDS011;3835;48.850;8.938;2024-01-10T06:01:02;24.02;;;20.90;;
7587;SDS011;3835;48.850;8.938;2024-01-10T06:03:29;21.58;;;19.40;;
7587;SDS011;3835;48.850;8.938;2024-01-10T06:05:56;22.33;;;19.80;;
7587;SDS011;3835;48.850;8.938;2024-01-10T06:08:24;28.70;;;22.40;;
7587;SDS011;3835;48.850;8.938;2024-01-10T06:10:53;21.50;;;19.30;;
7587;SDS011;3835;48.850;8.938;2024-01-10T06:13:20;24.45;;;20.20;;
7587;SDS011;3835;48.850;8.938;2024-01-10T06:15:47;23.10;;;20.35;;
7587;SDS011;3835;48.850;8.938;2024-01-10T06:18:14;22.27;;;19.92;;
7587;SDS011;3835;48.850;8.938;2024-01-10T06:20:40;22.48;;;20.13;;
7587;SDS011;3835;48.850;8.938;2024-01-10T06:23:07;23.33;;;20.38;;
7587;SDS011;3835;48.850;8.938;2024-01-10T06:25:36;23.30;;;21.08;;
7587;SDS011;3835;48.850;8.938;2024-01-10T06:28:03;23.77;;;21.27;;
7587;SDS011;3835;48.850;8.938;2024-01-10T06:30:30;31.88;;;23.58;;
7587;SDS011;3835;48.850;8.938;2024-01-10T06:32:57;29.77;;;22.38;;
7587;SDS011;3835;48.850;8.938;2024-01-10T06:35:24;31.85;;;23.60;;
7587;SDS011;3835;48.850;8.938;2024-01-10T06:37:51;48.60;;;27.70;;
7587;SDS011;3835;48.850;8.938;2024-01-10T06:40:18;57.92;;;32.05;;
7587;SDS011;3835;48.850;8.938;2024-01-10T06:42:48;33.20;;;23.63;;
7587;SDS011;3835;48.850;8.938;2024-01-10T06:45:15;28.05;;;21.67;;
7587;SDS011;3835;48.850;8.938;2024-01-10T06:47:41;21.20;;;19.17;;
7587;SDS011;3835;48.850;8.938;2024-01-10T06:50:08;22.52;;;20.13;;
7587;SDS011;3835;48.850;8.938;2024-01-10T06:55:04;27.73;;;22.50;;
7587;SDS011;3835;48.850;8.938;2024-01-10T06:57:31;26.20;;;22.48;;
7587;SDS011;3835;48.850;8.938;2024-01-10T06:59:59;23.98;;;20.98;;
7587;SDS011;3835;48.850;8.938;2024-01-10T07:02:28;26.23;;;21.67;;
7587;SDS011;3835;48.850;8.938;2024-01-10T07:04:57;23.55;;;21.10;;
7587;SDS011;3835;48.850;8.938;2024-01-10T07:07:24;25.73;;;21.60;;
7587;SDS011;3835;48.850;8.938;2024-01-10T07:09:50;28.88;;;20.75;;
7587;SDS011;3835;48.850;8.938;2024-01-10T07:12:18;29.20;;;21.95;;
7587;SDS011;3835;48.850;8.938;2024-01-10T07:14:44;28.35;;;20.90;;
7587;SDS011;3835;48.850;8.938;2024-01-10T07:17:13;30.42;;;21.40;;
7587;SDS011;3835;48.850;8.938;2024-01-10T07:19:39;26.20;;;20.80;;
7587;SDS011;3835;48.850;8.938;2024-01-10T07:22:06;28.85;;;21.95;;
7587;SDS011;3835;48.850;8.938;2024-01-10T07:24:35;26.63;;;20.20;;
7587;SDS011;3835;48.850;8.938;2024-01-10T07:27:02;28.95;;;21.60;;
7587;SDS011;3835;48.850;8.938;2024-01-10T07:29:29;33.55;;;23.60;;
7587;SDS011;3835;48.850;8.938;2024-01-10T07:31:56;29.42;;;24.35;;
7587;SDS011;3835;48.850;8.938;2024-01-10T07:34:24;34.80;;;24.60;;
7587;SDS011;3835;48.850;8.938;2024-01-10T07:36:51;38.63;;;25.30;;
7587;SDS011;3835;48.850;8.938;2024-01-10T07:39:19;41.78;;;25.92;;
7587;SDS011;3835;48.850;8.938;2024-01-10T07:41:46;41.28;;;26.08;;
7587;SDS011;3835;48.850;8.938;2024-01-10T07:44:15;39.38;;;25.25;;
7587;SDS011;3835;48.850;8.938;2024-01-10T07:46:41;38.90;;;24.80;;
7587;SDS011;3835;48.850;8.938;2024-01-10T07:49:08;37.60;;;24.20;;
7587;SDS011;3835;48.850;8.938;2024-01-10T07:51:36;36.70;;;26.05;;
7587;SDS011;3835;48.850;8.938;2024-01-10T07:54:03;35.25;;;24.42;;
7587;SDS011;3835;48.850;8.938;2024-01-10T07:56:30;32.00;;;22.55;;
7587;SDS011;3835;48.850;8.938;2024-01-10T07:58:57;34.92;;;23.63;;
7587;SDS011;3835;48.850;8.938;2024-01-10T08:01:24;33.80;;;23.77;;
7587;SDS011;3835;48.850;8.938;2024-01-10T08:03:51;38.80;;;27.52;;
7587;SDS011;3835;48.850;8.938;2024-01-10T08:06:17;31.40;;;24.13;;
7587;SDS011;3835;48.850;8.938;2024-01-10T08:08:46;34.00;;;24.55;;
7587;SDS011;3835;48.850;8.938;2024-01-10T08:11:13;31.20;;;24.30;;
7587;SDS011;3835;48.850;8.938;2024-01-10T08:13:40;42.33;;;26.27;;
7587;SDS011;3835;48.850;8.938;2024-01-10T08:16:06;38.20;;;25.20;;
7587;SDS011;3835;48.850;8.938;2024-01-10T08:18:34;37.38;;;22.27;;
7587;SDS011;3835;48.850;8.938;2024-01-10T08:21:01;26.17;;;22.83;;
7587;SDS011;3835;48.850;8.938;2024-01-10T08:23:29;31.60;;;25.13;;
7587;SDS011;3835;48.850;8.938;2024-01-10T08:25:57;29.42;;;24.92;;
7587;SDS011;3835;48.850;8.938;2024-01-10T08:28:24;28.23;;;25.05;;
7587;SDS011;3835;48.850;8.938;2024-01-10T08:30:51;28.55;;;25.23;;
7587;SDS011;3835;48.850;8.938;2024-01-10T08:33:18;27.08;;;24.40;;
7587;SDS011;3835;48.850;8.938;2024-01-10T08:35:45;25.98;;;22.38;;
7587;SDS011;3835;48.850;8.938;2024-01-10T08:38:12;25.15;;;21.98;;
7587;SDS011;3835;48.850;8.938;2024-01-10T08:40:39;27.10;;;23.10;;
7587;SDS011;3835;48.850;8.938;2024-01-10T08:43:07;32.42;;;24.17;;
7587;SDS011;3835;48.850;8.938;2024-01-10T08:45:34;37.13;;;22.40;;
7587;SDS011;3835;48.850;8.938;2024-01-10T08:48:01;30.25;;;23.15;;
7587;SDS011;3835;48.850;8.938;2024-01-10T08:50:28;23.75;;;21.20;;
7587;SDS011;3835;48.850;8.938;2024-01-10T08:52:56;29.02;;;22.13;;
7587;SDS011;3835;48.850;8.938;2024-01-10T08:55:22;26.50;;;22.85;;
7587;SDS011;3835;48.850;8.938;2024-01-10T08:57:49;25.58;;;21.83;;
7587;SDS011;3835;48.850;8.938;2024-01-10T09:00:18;27.83;;;23.23;;
7587;SDS011;3835;48.850;8.938;2024-01-10T09:02:45;25.63;;;22.35;;
7587;SDS011;3835;48.850;8.938;2024-01-10T09:05:11;25.98;;;21.70;;
7587;SDS011;3835;48.850;8.938;2024-01-10T09:07:38;24.27;;;21.73;;
7587;SDS011;3835;48.850;8.938;2024-01-10T09:10:05;25.50;;;22.88;;
7587;SDS011;3835;48.850;8.938;2024-01-10T09:12:33;32.17;;;23.95;;
7587;SDS011;3835;48.850;8.938;2024-01-10T09:15:00;29.02;;;23.08;;
7587;SDS011;3835;48.850;8.938;2024-01-10T09:17:29;26.45;;;23.38;;
7587;SDS011;3835;48.850;8.938;2024-01-10T09:19:56;24.42;;;21.42;;
7587;SDS011;3835;48.850;8.938;2024-01-10T09:22:23;31.27;;;23.05;;
7587;SDS011;3835;48.850;8.938;2024-01-10T09:24:50;26.00;;;22.60;;
7587;SDS011;3835;48.850;8.938;2024-01-10T09:27:16;24.48;;;21.75;;
7587;SDS011;3835;48.850;8.938;2024-01-10T09:29:43;32.38;;;23.63;;
7587;SDS011;3835;48.850;8.938;2024-01-10T09:32:10;25.30;;;22.02;;
7587;SDS011;3835;48.850;8.938;2024-01-10T09:34:39;28.02;;;23.67;;
7587;SDS011;3835;48.850;8.938;2024-01-10T09:37:06;29.85;;;21.88;;
7587;SDS011;3835;48.850;8.938;2024-01-10T09:43:01;27.67;;;22.35;;
7587;SDS011;3835;48.850;8.938;2024-01-10T09:45:28;32.90;;;25.27;;
7587;SDS011;3835;48.850;8.938;2024-01-10T09:48:00;30.27;;;22.88;;
7587;SDS011;3835;48.850;8.938;2024-01-10T09:50:29;29.55;;;23.13;;
7587;SDS011;3835;48.850;8.938;2024-01-10T09:52:58;29.48;;;22.55;;
7587;SDS011;3835;48.850;8.938;2024-01-10T09:55:32;30.90;;;23.40;;
7587;SDS011;3835;48.850;8.938;2024-01-10T09:58:02;29.77;;;23.60;;
7587;SDS011;3835;48.850;8.938;2024-01-10T10:00:30;25.95;;;22.90;;
7587;SDS011;3835;48.850;8.938;2024-01-10T10:03:00;34.28;;;22.38;;
7587;SDS011;3835;48.850;8.938;2024-01-10T10:05:31;24.90;;;21.58;;
7587;SDS011;3835;48.850;8.938;2024-01-10T10:08:00;31.20;;;22.52;;
7587;SDS011;3835;48.850;8.938;2024-01-10T10:10:28;28.73;;;23.10;;
7587;SDS011;3835;48.850;8.938;2024-01-10T10:12:54;31.25;;;23.92;;
7587;SDS011;3835;48.850;8.938;2024-01-10T10:15:22;26.98;;;23.98;;
7587;SDS011;3835;48.850;8.938;2024-01-10T10:17:51;31.88;;;23.80;;
7587;SDS011;3835;48.850;8.938;2024-01-10T10:20:20;35.05;;;23.15;;
7587;SDS011;3835;48.850;8.938;2024-01-10T10:22:59;26.23;;;22.23;;
7587;SDS011;3835;48.850;8.938;2024-01-10T10:25:28;30.13;;;23.92;;
7587;SDS011;3835;48.850;8.938;2024-01-10T10:27:56;27.85;;;21.52;;
7587;SDS011;3835;48.850;8.938;2024-01-10T10:30:23;30.90;;;23.98;;
7587;SDS011;3835;48.850;8.938;2024-01-10T10:32:50;28.50;;;21.60;;
7587;SDS011;3835;48.850;8.938;2024-01-10T10:35:18;28.13;;;21.48;;
7587;SDS011;3835;48.850;8.938;2024-01-10T10:37:45;30.48;;;23.80;;
7587;SDS011;3835;48.850;8.938;2024-01-10T10:40:14;31.00;;;22.35;;
7587;SDS011;3835;48.850;8.938;2024-01-10T10:42:43;27.83;;;22.90;;
7587;SDS011;3835;48.850;8.938;2024-01-10T10:45:12;29.00;;;22.47;;
7587;SDS011;3835;48.850;8.938;2024-01-10T10:47:42;30.83;;;23.23;;
7587;SDS011;3835;48.850;8.938;2024-01-10T10:50:12;31.67;;;22.45;;
7587;SDS011;3835;48.850;8.938;2024-01-10T10:52:49;26.83;;;22.90;;
7587;SDS011;3835;48.850;8.938;2024-01-10T10:55:17;28.87;;;22.20;;
7587;SDS011;3835;48.850;8.938;2024-01-10T10:57:45;27.30;;;22.10;;
7587;SDS011;3835;48.850;8.938;2024-01-10T11:00:13;26.13;;;23.20;;
7587;SDS011;3835;48.850;8.938;2024-01-10T11:02:41;29.88;;;22.85;;
7587;SDS011;3835;48.850;8.938;2024-01-10T11:05:09;28.58;;;22.63;;
7587;SDS011;3835;48.850;8.938;2024-01-10T11:07:36;29.43;;;22.93;;
7587;SDS011;3835;48.850;8.938;2024-01-10T11:10:08;29.20;;;23.40;;
7587;SDS011;3835;48.850;8.938;2024-01-10T11:12:43;33.33;;;23.37;;
7587;SDS011;3835;48.850;8.938;2024-01-10T11:15:24;34.97;;;23.43;;
7587;SDS011;3835;48.850;8.938;2024-01-10T11:18:10;29.23;;;24.37;;
7587;SDS011;3835;48.850;8.938;2024-01-10T11:20:51;30.07;;;23.80;;
7587;SDS011;3835;48.850;8.938;2024-01-10T11:23:34;31.30;;;23.63;;
7587;SDS011;3835;48.850;8.938;2024-01-10T11:26:08;34.27;;;24.63;;
7587;SDS011;3835;48.850;8.938;2024-01-10T11:28:35;30.77;;;23.97;;
7587;SDS011;3835;48.850;8.938;2024-01-10T11:31:03;28.10;;;23.47;;
7587;SDS011;3835;48.850;8.938;2024-01-10T11:33:32;29.57;;;23.93;;
7587;SDS011;3835;48.850;8.938;2024-01-10T11:36:14;33.07;;;24.00;;
7587;SDS011;3835;48.850;8.938;2024-01-10T11:38:49;32.70;;;24.80;;
7587;SDS011;3835;48.850;8.938;2024-01-10T11:41:21;30.70;;;23.33;;
7587;SDS011;3835;48.850;8.938;2024-01-10T11:46:55;29.03;;;24.07;;
7587;SDS011;3835;48.850;8.938;2024-01-10T11:49:23;31.10;;;24.43;;
7587;SDS011;3835;48.850;8.938;2024-01-10T11:51:52;31.17;;;23.90;;
7587;SDS011;3835;48.850;8.938;2024-01-10T11:54:43;32.47;;;23.87;;
7587;SDS011;3835;48.850;8.938;2024-01-10T11:57:12;31.57;;;24.50;;
7587;SDS011;3835;48.850;8.938;2024-01-10T11:59:41;30.90;;;23.10;;
7587;SDS011;3835;48.850;8.938;2024-01-10T12:02:10;32.90;;;24.00;;
7587;SDS011;3835;48.850;8.938;2024-01-10T12:04:37;33.30;;;24.80;;
7587;SDS011;3835;48.850;8.938;2024-01-10T12:07:05;28.40;;;23.30;;
7587;SDS011;3835;48.850;8.938;2024-01-10T12:09:33;30.40;;;23.30;;
7587;SDS011;3835;48.850;8.938;2024-01-10T12:12:00;31.13;;;23.80;;
7587;SDS011;3835;48.850;8.938;2024-01-10T12:14:28;32.07;;;26.13;;
7587;SDS011;3835;48.850;8.938;2024-01-10T12:16:55;28.70;;;23.33;;
7587;SDS011;3835;48.850;8.938;2024-01-10T12:19:22;31.83;;;24.77;;
7587;SDS011;3835;48.850;8.938;2024-01-10T12:21:49;33.53;;;24.20;;
7587;SDS011;3835;48.850;8.938;2024-01-10T12:24:17;32.60;;;25.47;;
7587;SDS011;3835;48.850;8.938;2024-01-10T12:26:44;25.07;;;22.10;;
7587;SDS011;3835;48.850;8.938;2024-01-10T12:29:11;32.67;;;25.40;;
7587;SDS011;3835;48.850;8.938;2024-01-10T12:31:40;27.17;;;23.37;;
7587;SDS011;3835;48.850;8.938;2024-01-10T12:34:09;30.97;;;23.83;;
7587;SDS011;3835;48.850;8.938;2024-01-10T12:36:36;29.90;;;24.50;;
7587;SDS011;3835;48.850;8.938;2024-01-10T12:39:03;35.80;;;24.80;;
7587;SDS011;3835;48.850;8.938;2024-01-10T12:41:31;32.10;;;24.27;;
7587;SDS011;3835;48.850;8.938;2024-01-10T12:43:59;32.17;;;25.30;;
7587;SDS011;3835;48.850;8.938;2024-01-10T12:46:28;30.43;;;24.60;;
7587;SDS011;3835;48.850;8.938;2024-01-10T12:49:01;28.87;;;24.37;;
7587;SDS011;3835;48.850;8.938;2024-01-10T12:51:30;35.67;;;24.90;;
7587;SDS011;3835;48.850;8.938;2024-01-10T12:53:58;32.00;;;24.57;;
7587;SDS011;3835;48.850;8.938;2024-01-10T12:56:26;30.20;;;24.40;;
7587;SDS011;3835;48.850;8.938;2024-01-10T12:58:57;32.20;;;23.43;;
7587;SDS011;3835;48.850;8.938;2024-01-10T13:01:25;28.73;;;24.80;;
7587;SDS011;3835;48.850;8.938;2024-01-10T13:03:52;36.03;;;25.23;;
7587;SDS011;3835;48.850;8.938;2024-01-10T13:06:20;32.13;;;25.90;;
7587;SDS011;3835;48.850;8.938;2024-01-10T13:08:47;36.27;;;24.83;;
7587;SDS011;3835;48.850;8.938;2024-01-10T13:11:14;31.87;;;23.30;;
7587;SDS011;3835;48.850;8.938;2024-01-10T13:13:41;34.43;;;24.63;;
7587;SDS011;3835;48.850;8.938;2024-01-10T13:16:08;29.77;;;22.30;;
7587;SDS011;3835;48.850;8.938;2024-01-10T13:18:36;28.40;;;23.63;;
7587;SDS011;3835;48.850;8.938;2024-01-10T13:21:03;33.63;;;24.93;;
7587;SDS011;3835;48.850;8.938;2024-01-10T13:23:32;33.07;;;23.43;;
7587;SDS011;3835;48.850;8.938;2024-01-10T13:25:59;37.10;;;23.30;;
7587;SDS011;3835;48.850;8.938;2024-01-10T13:28:26;38.30;;;25.77;;
7587;SDS011;3835;48.850;8.938;2024-01-10T13:30:54;33.00;;;25.33;;
7587;SDS011;3835;48.850;8.938;2024-01-10T13:33:22;37.00;;;25.97;;
7587;SDS011;3835;48.850;8.938;2024-01-10T13:35:50;34.73;;;26.07;;
7587;SDS011;3835;48.850;8.938;2024-01-10T13:38:17;31.20;;;25.10;;
7587;SDS011;3835;48.850;8.938;2024-01-10T13:40:45;30.03;;;22.83;;
7587;SDS011;3835;48.850;8.938;2024-01-10T13:43:12;36.93;;;26.23;;
7587;SDS011;3835;48.850;8.938;2024-01-10T13:45:40;40.60;;;26.90;;
7587;SDS011;3835;48.850;8.938;2024-01-10T13:48:06;33.83;;;24.80;;
7587;SDS011;3835;48.850;8.938;2024-01-10T13:50:35;34.13;;;25.87;;
7587;SDS011;3835;48.850;8.938;2024-01-10T13:53:02;33.77;;;25.20;;
7587;SDS011;3835;48.850;8.938;2024-01-10T13:55:29;34.10;;;23.83;;
7587;SDS011;3835;48.850;8.938;2024-01-10T13:57:58;36.87;;;24.93;;
7587;SDS011;3835;48.850;8.938;2024-01-10T14:00:24;35.53;;;24.93;;
7587;SDS011;3835;48.850;8.938;2024-01-10T14:02:52;34.83;;;25.97;;
7587;SDS011;3835;48.850;8.938;2024-01-10T14:05:23;31.77;;;26.07;;
7587;SDS011;3835;48.850;8.938;2024-01-10T14:07:50;32.20;;;25.67;;
7587;SDS011;3835;48.850;8.938;2024-01-10T14:10:17;31.13;;;26.13;;
7587;SDS011;3835;48.850;8.938;2024-01-10T14:12:44;43.77;;;27.63;;
7587;SDS011;3835;48.850;8.938;2024-01-10T14:15:13;35.27;;;24.87;;
7587;SDS011;3835;48.850;8.938;2024-01-10T14:17:40;36.73;;;25.70;;
7587;SDS011;3835;48.850;8.938;2024-01-10T14:20:08;36.00;;;26.40;;
7587;SDS011;3835;48.850;8.938;2024-01-10T14:22:35;37.97;;;25.90;;
7587;SDS011;3835;48.850;8.938;2024-01-10T14:25:02;38.57;;;26.00;;
7587;SDS011;3835;48.850;8.938;2024-01-10T14:27:30;34.73;;;25.77;;
7587;SDS011;3835;48.850;8.938;2024-01-10T14:29:57;33.20;;;24.67;;
7587;SDS011;3835;48.850;8.938;2024-01-10T14:32:26;31.03;;;25.67;;
7587;SDS011;3835;48.850;8.938;2024-01-10T14:34:53;35.13;;;27.03;;
7587;SDS011;3835;48.850;8.938;2024-01-10T14:37:20;39.97;;;28.30;;
7587;SDS011;3835;48.850;8.938;2024-01-10T14:39:46;39.50;;;27.03;;
7587;SDS011;3835;48.850;8.938;2024-01-10T14:42:13;35.55;;;26.83;;
7587;SDS011;3835;48.850;8.938;2024-01-10T14:44:40;33.70;;;23.20;;
7587;SDS011;3835;48.850;8.938;2024-01-10T14:47:07;38.67;;;27.60;;
7587;SDS011;3835;48.850;8.938;2024-01-10T14:49:35;34.27;;;25.60;;
7587;SDS011;3835;48.850;8.938;2024-01-10T14:52:02;37.90;;;26.47;;
7587;SDS011;3835;48.850;8.938;2024-01-10T14:54:29;37.83;;;26.23;;
7587;SDS011;3835;48.850;8.938;2024-01-10T14:56:56;33.07;;;25.77;;
7587;SDS011;3835;48.850;8.938;2024-01-10T14:59:23;35.73;;;26.93;;